Terminal Aerodrome Forecast
Issued by NWS

Home | Current Version | Previous Version | Text Only | Print | Product List | Glossary On
Versions: 1 2 3 4 5 6 7 8 9 10 11 12 13 14 15 16 17 18 19 20 21 22
000
FTUS43 KDLH 040137 AAA
TAFBRD
TAF AMD
KBRD 040137Z 0402/0424 VRB03KT 3SM FU FEW035
     FM041600 17008KT 6SM FU SKC
     FM041900 18009KT P6SM FEW050=

USA.gov is the U.S. government's official web portal to all federal, state and local government web resources and services.